Time,TemperatureF,DewpointF,PressureIn,WindDirection,WindDirectionDegrees,WindSpeedMPH,WindSpeedGustMPH,Humidity,HourlyPrecipIn,Conditions,Clouds,dailyrainin,SolarRadiationWatts/m^2,SoftwareType,DateUTC
2013-04-19 00:11:00,16.0,6.0,-100.00,SE,146,11.0,13.0,65,0.00,,,-99.99,0.000000,,2013-04-19 06:11:00,
2013-04-19 00:22:00,16.0,6.0,-100.00,SE,146,11.0,13.0,65,0.00,,,-99.99,0.000000,,2013-04-19 06:22:00,
2013-04-19 00:32:00,16.0,6.0,-100.00,SE,146,11.0,13.0,65,0.00,,,-99.99,0.000000,,2013-04-19 06:32:00,
2013-04-19 00:42:00,16.0,6.0,-100.00,SE,146,11.0,13.0,65,0.00,,,-99.99,0.000000,,2013-04-19 06:42:00,
2013-04-19 01:12:00,16.0,5.0,-100.00,SSE,152,13.0,16.0,62,0.00,,,-99.99,0.000000,,2013-04-19 07:12:00,
2013-04-19 01:21:00,16.0,5.0,-100.00,SSE,152,13.0,16.0,62,0.00,,,-99.99,0.000000,,2013-04-19 07:21:00,
2013-04-19 01:31:00,16.0,5.0,-100.00,SSE,152,13.0,16.0,62,0.00,,,-99.99,0.000000,,2013-04-19 07:31:00,
2013-04-19 01:42:00,16.0,5.0,-100.00,SSE,152,13.0,16.0,62,0.00,,,-99.99,0.000000,,2013-04-19 07:42:00,
2013-04-19 02:21:00,14.0,5.0,-100.00,SSE,148,12.0,18.0,67,0.00,,,-99.99,0.000000,,2013-04-19 08:21:00,
2013-04-19 02:32:00,14.0,5.0,-100.00,SSE,148,12.0,18.0,67,0.00,,,-99.99,0.000000,,2013-04-19 08:32:00,
2013-04-19 02:42:00,14.0,5.0,-100.00,SSE,148,12.0,18.0,67,0.00,,,-99.99,0.000000,,2013-04-19 08:42:00,
2013-04-19 03:11:00,13.0,4.0,-100.00,SE,144,12.0,15.0,66,0.00,,,-99.99,0.000000,,2013-04-19 09:11:00,
2013-04-19 03:21:00,13.0,4.0,-100.00,SE,144,12.0,15.0,66,0.00,,,-99.99,0.000000,,2013-04-19 09:21:00,
2013-04-19 03:32:00,13.0,4.0,-100.00,SE,144,12.0,15.0,66,0.00,,,-99.99,0.000000,,2013-04-19 09:32:00,
2013-04-19 03:42:00,13.0,4.0,-100.00,SE,144,12.0,15.0,66,0.00,,,-99.99,0.000000,,2013-04-19 09:42:00,
2013-04-19 04:13:00,16.0,5.0,-100.00,SE,137,9.0,14.0,60,0.00,,,-99.99,0.000000,,2013-04-19 10:13:00,
2013-04-19 04:23:00,16.0,5.0,-100.00,SE,137,9.0,14.0,60,0.00,,,-99.99,0.000000,,2013-04-19 10:23:00,
2013-04-19 04:33:00,16.0,5.0,-100.00,SE,137,9.0,14.0,60,0.00,,,-99.99,0.000000,,2013-04-19 10:33:00,
2013-04-19 04:42:00,16.0,5.0,-100.00,SE,137,9.0,14.0,60,0.00,,,-99.99,0.000000,,2013-04-19 10:42:00,
2013-04-19 05:11:00,14.0,4.0,-100.00,SE,127,7.0,12.0,64,0.00,,,-99.99,0.000000,,2013-04-19 11:11:00,
2013-04-19 05:22:00,14.0,4.0,-100.00,SE,127,7.0,12.0,64,0.00,,,-99.99,0.000000,,2013-04-19 11:22:00,
2013-04-19 05:32:00,14.0,4.0,-100.00,SE,127,7.0,12.0,64,0.00,,,-99.99,0.000000,,2013-04-19 11:32:00,
2013-04-19 05:42:00,14.0,4.0,-100.00,SE,127,7.0,12.0,64,0.00,,,-99.99,0.000000,,2013-04-19 11:42:00,
2013-04-19 06:12:00,14.0,4.0,-100.00,SE,135,7.0,9.0,64,0.00,,,-99.99,0.000000,,2013-04-19 12:12:00,
2013-04-19 06:22:00,14.0,4.0,-100.00,SE,135,7.0,9.0,64,0.00,,,-99.99,0.000000,,2013-04-19 12:22:00,
2013-04-19 06:32:00,14.0,4.0,-100.00,SE,135,7.0,9.0,64,0.00,,,-99.99,0.000000,,2013-04-19 12:32:00,
2013-04-19 06:42:00,14.0,4.0,-100.00,SE,135,7.0,9.0,64,0.00,,,-99.99,0.000000,,2013-04-19 12:42:00,
2013-04-19 07:11:00,14.0,5.0,-100.00,SE,141,9.0,11.0,67,0.00,,,-99.99,6.000000,,2013-04-19 13:11:00,
2013-04-19 07:21:00,14.0,5.0,-100.00,SE,141,9.0,11.0,67,0.00,,,-99.99,6.000000,,2013-04-19 13:21:00,
2013-04-19 07:32:00,14.0,5.0,-100.00,SE,141,9.0,11.0,67,0.00,,,-99.99,6.000000,,2013-04-19 13:32:00,
2013-04-19 07:42:00,14.0,5.0,-100.00,SE,141,9.0,11.0,67,0.00,,,-99.99,6.000000,,2013-04-19 13:42:00,
2013-04-19 08:11:00,20.0,8.0,-100.00,ESE,111,7.0,15.0,58,0.00,,,-99.99,164.000000,,2013-04-19 14:11:00,
2013-04-19 09:12:00,26.0,10.0,-100.00,SE,142,3.0,9.0,50,0.00,,,-99.99,421.000000,,2013-04-19 15:12:00,
2013-04-19 10:12:00,31.0,12.0,-100.00,SSE,159,3.0,9.0,44,-99.99,,,0.03,664.000000,,2013-04-19 16:12:00,
2013-04-19 10:23:00,31.0,12.0,-100.00,SSE,159,3.0,9.0,44,-99.99,,,0.03,664.000000,,2013-04-19 16:23:00,
2013-04-19 10:32:00,31.0,12.0,-100.00,SSE,159,3.0,9.0,44,-99.99,,,0.03,664.000000,,2013-04-19 16:32:00,
2013-04-19 10:42:00,31.0,12.0,-100.00,SSE,159,3.0,9.0,44,-99.99,,,0.03,664.000000,,2013-04-19 16:42:00,
2013-04-19 11:12:00,36.0,13.0,-100.00,NNE,20,4.0,8.0,39,0.00,,,0.01,874.000000,,2013-04-19 17:12:00,
2013-04-19 11:21:00,36.0,13.0,-100.00,NNE,20,4.0,8.0,39,0.00,,,0.01,874.000000,,2013-04-19 17:21:00,
2013-04-19 11:32:00,36.0,13.0,-100.00,NNE,20,4.0,8.0,39,0.00,,,0.01,874.000000,,2013-04-19 17:32:00,
2013-04-19 11:42:00,36.0,13.0,-100.00,NNE,20,4.0,8.0,39,0.00,,,0.01,874.000000,,2013-04-19 17:42:00,
2013-04-19 12:13:00,35.0,13.0,-100.00,NNW,339,8.0,14.0,40,0.00,,,-99.99,972.000000,,2013-04-19 18:13:00,
2013-04-19 12:22:00,35.0,13.0,-100.00,NNW,339,8.0,14.0,40,0.00,,,-99.99,972.000000,,2013-04-19 18:22:00,
2013-04-19 12:33:00,35.0,13.0,-100.00,NNW,339,8.0,14.0,40,0.00,,,-99.99,972.000000,,2013-04-19 18:33:00,
2013-04-19 12:42:00,35.0,13.0,-100.00,NNW,339,8.0,14.0,40,0.00,,,-99.99,972.000000,,2013-04-19 18:42:00,
2013-04-19 13:11:00,38.0,14.0,-100.00,NNW,341,6.0,16.0,37,0.00,,,0.00,1074.000000,,2013-04-19 19:11:00,
2013-04-19 13:21:00,38.0,14.0,-100.00,NNW,341,6.0,16.0,37,0.00,,,0.00,1074.000000,,2013-04-19 19:21:00,
2013-04-19 13:32:00,38.0,14.0,-100.00,NNW,341,6.0,16.0,37,0.00,,,0.00,1074.000000,,2013-04-19 19:32:00,
2013-04-19 13:41:00,38.0,14.0,-100.00,NNW,341,6.0,16.0,37,0.00,,,0.00,1074.000000,,2013-04-19 19:41:00,
2013-04-19 14:11:00,40.0,18.0,-100.00,North,0,13.0,24.0,40,0.00,,,-99.99,1173.000000,,2013-04-19 20:11:00,
2013-04-19 14:22:00,40.0,18.0,-100.00,North,0,13.0,24.0,40,0.00,,,-99.99,1173.000000,,2013-04-19 20:22:00,
2013-04-19 14:32:00,40.0,18.0,-100.00,North,0,13.0,24.0,40,0.00,,,-99.99,1173.000000,,2013-04-19 20:32:00,
2013-04-19 14:41:00,40.0,18.0,-100.00,North,0,13.0,24.0,40,0.00,,,-99.99,1173.000000,,2013-04-19 20:41:00,
2013-04-19 15:21:00,40.0,16.0,-100.00,NNW,338,7.0,22.0,38,0.00,,,0.00,848.000000,,2013-04-19 21:21:00,
2013-04-19 15:32:00,40.0,16.0,-100.00,NNW,338,7.0,22.0,38,0.00,,,0.00,848.000000,,2013-04-19 21:32:00,
2013-04-19 15:42:00,40.0,16.0,-100.00,NNW,338,7.0,22.0,38,0.00,,,0.00,848.000000,,2013-04-19 21:42:00,
2013-04-19 16:22:00,39.0,16.0,-100.00,West,267,4.0,16.0,38,0.00,,,0.00,561.000000,,2013-04-19 22:22:00,
2013-04-19 16:33:00,39.0,16.0,-100.00,West,267,4.0,16.0,38,0.00,,,0.00,561.000000,,2013-04-19 22:33:00,
2013-04-19 16:42:00,39.0,16.0,-100.00,West,267,4.0,16.0,38,0.00,,,0.00,561.000000,,2013-04-19 22:42:00,
2013-04-19 17:11:00,36.0,16.0,-100.00,West,272,8.0,18.0,44,0.00,,,0.00,346.000000,,2013-04-19 23:11:00,
2013-04-19 17:22:00,36.0,16.0,-100.00,West,272,8.0,18.0,44,0.00,,,0.00,346.000000,,2013-04-19 23:22:00,
2013-04-19 17:32:00,36.0,16.0,-100.00,West,272,8.0,18.0,44,0.00,,,0.00,346.000000,,2013-04-19 23:32:00,
2013-04-19 17:42:00,36.0,16.0,-100.00,West,272,8.0,18.0,44,0.00,,,0.00,346.000000,,2013-04-19 23:42:00,
2013-04-19 18:12:00,35.0,18.0,-100.00,WNW,295,9.0,19.0,50,0.00,,,0.00,244.000000,,2013-04-20 00:12:00,
2013-04-19 18:21:00,35.0,18.0,-100.00,WNW,295,9.0,19.0,50,0.00,,,0.00,244.000000,,2013-04-20 00:21:00,
2013-04-19 18:32:00,35.0,18.0,-100.00,WNW,295,9.0,19.0,50,0.00,,,0.00,244.000000,,2013-04-20 00:32:00,
2013-04-19 18:41:00,35.0,18.0,-100.00,WNW,295,9.0,19.0,50,0.00,,,0.00,244.000000,,2013-04-20 00:41:00,
2013-04-19 19:11:00,32.0,20.0,-100.00,NW,313,12.0,18.0,61,0.00,,,0.00,129.000000,,2013-04-20 01:11:00,
2013-04-19 19:21:00,32.0,20.0,-100.00,NW,313,12.0,18.0,61,0.00,,,0.00,129.000000,,2013-04-20 01:21:00,
2013-04-19 19:32:00,32.0,20.0,-100.00,NW,313,12.0,18.0,61,0.00,,,0.00,129.000000,,2013-04-20 01:32:00,
2013-04-19 19:42:00,32.0,20.0,-100.00,NW,313,12.0,18.0,61,0.00,,,0.00,129.000000,,2013-04-20 01:42:00,
2013-04-19 20:11:00,30.0,21.0,-100.00,NNW,336,5.0,17.0,69,0.00,,,0.00,25.000000,,2013-04-20 02:11:00,
2013-04-19 20:21:00,30.0,21.0,-100.00,NNW,336,5.0,17.0,69,0.00,,,0.00,25.000000,,2013-04-20 02:21:00,
2013-04-19 20:32:00,30.0,21.0,-100.00,NNW,336,5.0,17.0,69,0.00,,,0.00,25.000000,,2013-04-20 02:32:00,
2013-04-19 20:42:00,30.0,21.0,-100.00,NNW,336,5.0,17.0,69,0.00,,,0.00,25.000000,,2013-04-20 02:42:00,
2013-04-19 21:21:00,28.0,23.0,-100.00,North,354,3.0,9.0,82,0.00,,,0.00,0.000000,,2013-04-20 03:21:00,
2013-04-19 21:33:00,28.0,23.0,-100.00,North,354,3.0,9.0,82,0.00,,,0.00,0.000000,,2013-04-20 03:33:00,
2013-04-19 21:43:00,28.0,23.0,-100.00,North,354,3.0,9.0,82,0.00,,,0.00,0.000000,,2013-04-20 03:43:00,
2013-04-19 22:23:00,27.0,26.0,-100.00,NW,314,3.0,8.0,95,0.00,,,0.00,0.000000,,2013-04-20 04:23:00,
2013-04-19 22:32:00,27.0,26.0,-100.00,NW,314,3.0,8.0,95,0.00,,,0.00,0.000000,,2013-04-20 04:32:00,
2013-04-19 22:42:00,27.0,26.0,-100.00,NW,314,3.0,8.0,95,0.00,,,0.00,0.000000,,2013-04-20 04:42:00,
2013-04-19 23:12:00,27.0,26.0,-100.00,SSE,163,5.0,6.0,97,0.00,,,0.00,0.000000,,2013-04-20 05:12:00,
2013-04-19 23:21:00,27.0,26.0,-100.00,SSE,163,5.0,6.0,97,0.00,,,0.00,0.000000,,2013-04-20 05:21:00,
2013-04-19 23:32:00,27.0,26.0,-100.00,SSE,163,5.0,6.0,97,0.00,,,0.00,0.000000,,2013-04-20 05:32:00,
2013-04-19 23:42:00,27.0,26.0,-100.00,SSE,163,5.0,6.0,97,0.00,,,0.00,0.000000,,2013-04-20 05:42:00,